sensor_id;sensor_type;location;lat;lon;timestamp;pressure;altitude;pressure_sealevel;temperature;humidity
62402;BME280;48440;51.224;22.506;2022-12-24T00:00:19;98268.50;;;3.29;88.19
62402;BME280;48440;51.224;22.506;2022-12-24T00:02:45;98263.13;;;3.29;88.25
62402;BME280;48440;51.224;22.506;2022-12-24T00:05:10;98266.63;;;3.29;88.21
62402;BME280;48440;51.224;22.506;2022-12-24T00:07:36;98263.97;;;3.29;88.22
62402;BME280;48440;51.224;22.506;2022-12-24T00:10:03;98268.50;;;3.29;88.14
62402;BME280;48440;51.224;22.506;2022-12-24T00:12:28;98274.69;;;3.29;88.00
62402;BME280;48440;51.224;22.506;2022-12-24T00:14:54;98267.69;;;3.28;88.00
62402;BME280;48440;51.224;22.506;2022-12-24T00:17:19;98269.56;;;3.28;88.28
62402;BME280;48440;51.224;22.506;2022-12-24T00:19:45;98275.72;;;3.28;88.23
62402;BME280;48440;51.224;22.506;2022-12-24T00:22:10;98268.50;;;3.29;88.16
62402;BME280;48440;51.224;22.506;2022-12-24T00:24:36;98275.28;;;3.31;88.24
62402;BME280;48440;51.224;22.506;2022-12-24T00:27:01;98269.66;;;3.33;88.28
62402;BME280;48440;51.224;22.506;2022-12-24T00:29:27;98264.31;;;3.33;88.26
62402;BME280;48440;51.224;22.506;2022-12-24T00:31:53;98269.66;;;3.33;88.07
62402;BME280;48440;51.224;22.506;2022-12-24T00:34:21;98250.31;;;3.31;88.12
62402;BME280;48440;51.224;22.506;2022-12-24T00:36:46;98251.59;;;3.28;88.70
62402;BME280;48440;51.224;22.506;2022-12-24T00:39:12;98254.88;;;3.30;88.67
62402;BME280;48440;51.224;22.506;2022-12-24T00:41:37;98265.34;;;3.32;88.20
62402;BME280;48440;51.224;22.506;2022-12-24T00:44:05;98258.72;;;3.34;88.68
62402;BME280;48440;51.224;22.506;2022-12-24T00:46:35;98258.72;;;3.34;88.74
62402;BME280;48440;51.224;22.506;2022-12-24T00:49:02;98262.81;;;3.37;88.58
62402;BME280;48440;51.224;22.506;2022-12-24T00:51:28;98253.94;;;3.36;88.40
62402;BME280;48440;51.224;22.506;2022-12-24T00:53:54;98257.66;;;3.35;88.71
62402;BME280;48440;51.224;22.506;2022-12-24T00:56:20;98253.94;;;3.36;88.85
62402;BME280;48440;51.224;22.506;2022-12-24T00:58:46;98247.75;;;3.36;88.50
62402;BME280;48440;51.224;22.506;2022-12-24T01:01:11;98237.84;;;3.36;88.47
62402;BME280;48440;51.224;22.506;2022-12-24T01:03:37;98239.94;;;3.34;88.78
62402;BME280;48440;51.224;22.506;2022-12-24T01:06:05;98242.63;;;3.34;88.69
62402;BME280;48440;51.224;22.506;2022-12-24T01:08:32;98234.34;;;3.36;88.79
62402;BME280;48440;51.224;22.506;2022-12-24T01:10:58;98235.16;;;3.36;88.50
62402;BME280;48440;51.224;22.506;2022-12-24T01:13:24;98228.16;;;3.35;88.67
62402;BME280;48440;51.224;22.506;2022-12-24T01:15:50;98232.22;;;3.38;88.62
62402;BME280;48440;51.224;22.506;2022-12-24T01:18:15;98239.47;;;3.37;88.58
62402;BME280;48440;51.224;22.506;2022-12-24T01:20:41;98238.91;;;3.35;88.76
62402;BME280;48440;51.224;22.506;2022-12-24T01:23:07;98241.34;;;3.37;88.94
62402;BME280;48440;51.224;22.506;2022-12-24T01:25:32;98242.72;;;3.39;88.68
62402;BME280;48440;51.224;22.506;2022-12-24T01:27:58;98242.72;;;3.39;88.51
62402;BME280;48440;51.224;22.506;2022-12-24T01:30:23;98237.34;;;3.39;88.47
62402;BME280;48440;51.224;22.506;2022-12-24T01:32:49;98227.66;;;3.38;88.62
62402;BME280;48440;51.224;22.506;2022-12-24T01:35:15;98238.66;;;3.37;88.44
62402;BME280;48440;51.224;22.506;2022-12-24T01:37:41;98243.75;;;3.38;88.65
62402;BME280;48440;51.224;22.506;2022-12-24T01:40:13;98237.84;;;3.36;88.51
62402;BME280;48440;51.224;22.506;2022-12-24T01:42:57;98241.34;;;3.37;88.92
62402;BME280;48440;51.224;22.506;2022-12-24T01:45:49;98242.94;;;3.38;88.76
62402;BME280;48440;51.224;22.506;2022-12-24T01:51:35;98237.03;;;3.36;89.08
62402;BME280;48440;51.224;22.506;2022-12-24T01:53:43;98228.16;;;3.35;88.92
62402;BME280;48440;51.224;22.506;2022-12-24T01:56:10;98222.22;;;3.33;88.95
62402;BME280;48440;51.224;22.506;2022-12-24T01:58:37;98228.41;;;3.34;89.27
62402;BME280;48440;51.224;22.506;2022-12-24T02:01:04;98226.53;;;3.34;89.11
62402;BME280;48440;51.224;22.506;2022-12-24T02:03:30;98226.53;;;3.34;89.17
62402;BME280;48440;51.224;22.506;2022-12-24T02:05:57;98226.31;;;3.36;89.23
62402;BME280;48440;51.224;22.506;2022-12-24T02:08:24;98220.72;;;3.37;89.40
62402;BME280;48440;51.224;22.506;2022-12-24T02:11:25;98216.13;;;3.38;89.27
62402;BME280;48440;51.224;22.506;2022-12-24T02:13:55;98217.75;;;3.39;89.23
62402;BME280;48440;51.224;22.506;2022-12-24T02:27:55;98207.28;;;3.37;89.78
62402;BME280;48440;51.224;22.506;2022-12-24T02:30:37;98209.72;;;3.39;89.79
62402;BME280;48440;51.224;22.506;2022-12-24T02:33:26;98219.16;;;3.41;89.58
62402;BME280;48440;51.224;22.506;2022-12-24T02:39:11;98221.84;;;3.41;89.65
62402;BME280;48440;51.224;22.506;2022-12-24T02:41:41;98221.03;;;3.41;89.53
62402;BME280;48440;51.224;22.506;2022-12-24T02:44:29;98213.78;;;3.41;89.46
62402;BME280;48440;51.224;22.506;2022-12-24T02:46:57;98218.81;;;3.38;89.63
62402;BME280;48440;51.224;22.506;2022-12-24T02:49:24;98215.56;;;3.36;89.76
62402;BME280;48440;51.224;22.506;2022-12-24T02:51:49;98217.75;;;3.39;89.67
62402;BME280;48440;51.224;22.506;2022-12-24T02:54:15;98217.22;;;3.37;89.65
62402;BME280;48440;51.224;22.506;2022-12-24T02:57:20;98214.25;;;3.38;89.48
62402;BME280;48440;51.224;22.506;2022-12-24T03:00:06;98217.75;;;3.39;89.95
62402;BME280;48440;51.224;22.506;2022-12-24T03:05:21;98211.13;;;3.41;89.83
62402;BME280;48440;51.224;22.506;2022-12-24T03:08:03;98208.91;;;3.38;89.54
62402;BME280;48440;51.224;22.506;2022-12-24T03:10:55;98215.91;;;3.39;89.77
62402;BME280;48440;51.224;22.506;2022-12-24T03:13:23;98221.03;;;3.41;90.13
62402;BME280;48440;51.224;22.506;2022-12-24T03:15:49;98223.72;;;3.41;89.40
62402;BME280;48440;51.224;22.506;2022-12-24T03:18:19;98220.22;;;3.40;89.51
62402;BME280;48440;51.224;22.506;2022-12-24T03:20:59;98227.13;;;3.36;89.63
62402;BME280;48440;51.224;22.506;2022-12-24T03:23:26;98222.31;;;3.38;89.99
62402;BME280;48440;51.224;22.506;2022-12-24T03:25:51;98224.16;;;3.38;89.75
62402;BME280;48440;51.224;22.506;2022-12-24T03:28:18;98222.56;;;3.37;89.86
62402;BME280;48440;51.224;22.506;2022-12-24T03:30:47;98223.38;;;3.37;89.54
62402;BME280;48440;51.224;22.506;2022-12-24T03:33:13;98223.38;;;3.37;89.70
62402;BME280;48440;51.224;22.506;2022-12-24T03:35:39;98229.53;;;3.38;89.69
62402;BME280;48440;51.224;22.506;2022-12-24T03:38:05;98240.25;;;3.38;89.52
62402;BME280;48440;51.224;22.506;2022-12-24T03:40:31;98229.81;;;3.36;90.03
62402;BME280;48440;51.224;22.506;2022-12-24T03:42:57;98231.16;;;3.39;89.99
62402;BME280;48440;51.224;22.506;2022-12-24T03:45:24;98232.47;;;3.36;89.55
62402;BME280;48440;51.224;22.506;2022-12-24T03:47:49;98226.84;;;3.38;89.73
62402;BME280;48440;51.224;22.506;2022-12-24T03:50:16;98226.06;;;3.37;89.54
62402;BME280;48440;51.224;22.506;2022-12-24T03:52:42;98228.16;;;3.35;89.24
62402;BME280;48440;51.224;22.506;2022-12-24T03:55:08;98226.31;;;3.36;89.44
62402;BME280;48440;51.224;22.506;2022-12-24T03:57:34;98223.63;;;3.36;89.77
62402;BME280;48440;51.224;22.506;2022-12-24T04:00:00;98220.13;;;3.35;89.46
62402;BME280;48440;51.224;22.506;2022-12-24T04:02:25;98224.16;;;3.38;89.41
62402;BME280;48440;51.224;22.506;2022-12-24T04:04:51;98226.31;;;3.36;89.32
62402;BME280;48440;51.224;22.506;2022-12-24T04:07:17;98224.66;;;3.35;89.42
62402;BME280;48440;51.224;22.506;2022-12-24T04:09:42;98223.84;;;3.34;89.39
62402;BME280;48440;51.224;22.506;2022-12-24T04:12:08;98216.38;;;3.36;89.51
62402;BME280;48440;51.224;22.506;2022-12-24T04:14:33;98219.88;;;3.37;89.41
62402;BME280;48440;51.224;22.506;2022-12-24T04:16:58;98225.25;;;3.37;89.00
62402;BME280;48440;51.224;22.506;2022-12-24T04:19:24;98227.13;;;3.36;89.33
62402;BME280;48440;51.224;22.506;2022-12-24T04:21:50;98228.16;;;3.35;88.93
62402;BME280;48440;51.224;22.506;2022-12-24T04:24:15;98223.63;;;3.36;89.04
62402;BME280;48440;51.224;22.506;2022-12-24T04:26:41;98226.31;;;3.36;89.32
62402;BME280;48440;51.224;22.506;2022-12-24T04:29:06;98228.16;;;3.35;89.24
62402;BME280;48440;51.224;22.506;2022-12-24T04:31:32;98219.88;;;3.37;89.19
62402;BME280;48440;51.224;22.506;2022-12-24T04:33:57;98224.44;;;3.36;89.30
62402;BME280;48440;51.224;22.506;2022-12-24T04:36:23;98218.50;;;3.34;89.10
62402;BME280;48440;51.224;22.506;2022-12-24T04:38:49;98228.41;;;3.34;89.33
62402;BME280;48440;51.224;22.506;2022-12-24T04:41:19;98225.72;;;3.34;88.74
62402;BME280;48440;51.224;22.506;2022-12-24T04:43:46;98226.53;;;3.34;88.91
62402;BME280;48440;51.224;22.506;2022-12-24T04:46:14;98216.28;;;3.31;89.16
62402;BME280;48440;51.224;22.506;2022-12-24T04:48:40;98226.19;;;3.31;88.88
62402;BME280;48440;51.224;22.506;2022-12-24T04:51:07;98220.81;;;3.31;89.05
62402;BME280;48440;51.224;22.506;2022-12-24T04:53:34;98226.19;;;3.31;88.90
62402;BME280;48440;51.224;22.506;2022-12-24T04:56:00;98234.47;;;3.29;88.86
62402;BME280;48440;51.224;22.506;2022-12-24T04:58:26;98227.47;;;3.28;88.95
62402;BME280;48440;51.224;22.506;2022-12-24T05:00:52;98224.78;;;3.28;88.85
62402;BME280;48440;51.224;22.506;2022-12-24T05:03:18;98230.38;;;3.27;88.98
62402;BME280;48440;51.224;22.506;2022-12-24T05:05:43;98227.47;;;3.28;88.94
62402;BME280;48440;51.224;22.506;2022-12-24T05:08:09;98229.91;;;3.30;88.98
62402;BME280;48440;51.224;22.506;2022-12-24T05:10:34;98228.75;;;3.26;88.94
62402;BME280;48440;51.224;22.506;2022-12-24T05:13:00;98230.38;;;3.27;88.64
62402;BME280;48440;51.224;22.506;2022-12-24T05:15:25;98225.00;;;3.27;88.60
62402;BME280;48440;51.224;22.506;2022-12-24T05:17:51;98232.81;;;3.28;88.92
62402;BME280;48440;51.224;22.506;2022-12-24T05:20:16;98232.00;;;3.28;88.89
62402;BME280;48440;51.224;22.506;2022-12-24T05:22:42;98227.94;;;3.25;88.83
62402;BME280;48440;51.224;22.506;2022-12-24T05:25:36;98234.91;;;3.26;88.58
62402;BME280;48440;51.224;22.506;2022-12-24T05:28:21;98232.47;;;3.25;88.81
62402;BME280;48440;51.224;22.506;2022-12-24T05:30:46;98233.28;;;3.25;88.81
62402;BME280;48440;51.224;22.506;2022-12-24T05:33:12;98228.97;;;3.24;88.97
62402;BME280;48440;51.224;22.506;2022-12-24T05:35:38;98235.97;;;3.25;88.71
62402;BME280;48440;51.224;22.506;2022-12-24T05:38:03;98235.75;;;3.27;88.89
62402;BME280;48440;51.224;22.506;2022-12-24T05:40:29;98230.59;;;3.25;89.18
62402;BME280;48440;51.224;22.506;2022-12-24T05:42:54;98230.38;;;3.27;88.72
62402;BME280;48440;51.224;22.506;2022-12-24T05:45:20;98226.28;;;3.24;89.16
62402;BME280;48440;51.224;22.506;2022-12-24T05:47:45;98231.66;;;3.24;88.77
62402;BME280;48440;51.224;22.506;2022-12-24T05:50:11;98228.97;;;3.24;88.90
62402;BME280;48440;51.224;22.506;2022-12-24T05:52:37;98231.44;;;3.26;88.85
62402;BME280;48440;51.224;22.506;2022-12-24T05:55:02;98225.25;;;3.25;89.32
62402;BME280;48440;51.224;22.506;2022-12-24T05:57:28;98235.75;;;3.27;88.92
62402;BME280;48440;51.224;22.506;2022-12-24T05:59:53;98227.94;;;3.25;89.09
62402;BME280;48440;51.224;22.506;2022-12-24T06:02:19;98225.47;;;3.24;89.15
62402;BME280;48440;51.224;22.506;2022-12-24T06:04:44;98228.97;;;3.24;89.10
62402;BME280;48440;51.224;22.506;2022-12-24T06:07:10;98221.16;;;3.23;89.36
62402;BME280;48440;51.224;22.506;2022-12-24T06:09:35;98230.84;;;3.24;89.13
62402;BME280;48440;51.224;22.506;2022-12-24T06:12:01;98228.16;;;3.24;89.36
62402;BME280;48440;51.224;22.506;2022-12-24T06:14:27;98223.03;;;3.22;89.32
62402;BME280;48440;51.224;22.506;2022-12-24T06:16:52;98232.13;;;3.21;89.46
62402;BME280;48440;51.224;22.506;2022-12-24T06:19:18;98231.31;;;3.21;89.38
62402;BME280;48440;51.224;22.506;2022-12-24T06:21:43;98232.69;;;3.23;89.17
62402;BME280;48440;51.224;22.506;2022-12-24T06:24:09;98236.19;;;3.24;89.62
62402;BME280;48440;51.224;22.506;2022-12-24T06:26:34;98238.88;;;3.24;89.18
62402;BME280;48440;51.224;22.506;2022-12-24T06:29:00;98240.50;;;3.25;89.35
62402;BME280;48440;51.224;22.506;2022-12-24T06:31:25;98241.34;;;3.25;89.52
62402;BME280;48440;51.224;22.506;2022-12-24T06:33:52;98235.75;;;3.27;89.14
62402;BME280;48440;51.224;22.506;2022-12-24T06:36:22;98236.56;;;3.27;89.07
62402;BME280;48440;51.224;22.506;2022-12-24T06:38:49;98236.56;;;3.27;89.46
62402;BME280;48440;51.224;22.506;2022-12-24T06:41:16;98235.16;;;3.25;88.98
62402;BME280;48440;51.224;22.506;2022-12-24T06:43:49;98230.25;;;3.22;88.83
62402;BME280;48440;51.224;22.506;2022-12-24T06:46:16;98230.25;;;3.22;89.22
62402;BME280;48440;51.224;22.506;2022-12-24T06:48:43;98243.66;;;3.22;89.64
62402;BME280;48440;51.224;22.506;2022-12-24T06:51:10;98242.38;;;3.24;89.29
62402;BME280;48440;51.224;22.506;2022-12-24T06:53:36;98250.44;;;3.24;89.11
62402;BME280;48440;51.224;22.506;2022-12-24T06:56:06;98245.06;;;3.24;89.07
62402;BME280;48440;51.224;22.506;2022-12-24T06:58:33;98262.78;;;3.25;89.09
62402;BME280;48440;51.224;22.506;2022-12-24T07:01:04;98259.28;;;3.25;88.93
62402;BME280;48440;51.224;22.506;2022-12-24T07:03:30;98258.81;;;3.28;89.01
62402;BME280;48440;51.224;22.506;2022-12-24T07:05:56;98269.56;;;3.28;89.19
62402;BME280;48440;51.224;22.506;2022-12-24T07:08:21;98260.22;;;3.30;89.08
62402;BME280;48440;51.224;22.506;2022-12-24T07:10:48;98265.34;;;3.32;88.87
62402;BME280;48440;51.224;22.506;2022-12-24T07:13:14;98265.81;;;3.29;88.45
62402;BME280;48440;51.224;22.506;2022-12-24T07:15:40;98266.06;;;3.27;89.07
62402;BME280;48440;51.224;22.506;2022-12-24T07:18:06;98269.31;;;3.29;89.18
62402;BME280;48440;51.224;22.506;2022-12-24T07:20:31;98269.78;;;3.26;88.65
62402;BME280;48440;51.224;22.506;2022-12-24T07:22:56;98271.88;;;3.24;89.37
62402;BME280;48440;51.224;22.506;2022-12-24T07:25:22;98274.56;;;3.24;89.41
62402;BME280;48440;51.224;22.506;2022-12-24T07:27:47;98282.13;;;3.27;89.36
62402;BME280;48440;51.224;22.506;2022-12-24T07:30:13;98282.13;;;3.27;89.51
62402;BME280;48440;51.224;22.506;2022-12-24T07:32:38;98279.22;;;3.29;89.57
62402;BME280;48440;51.224;22.506;2022-12-24T07:35:04;98280.28;;;3.28;89.39
62402;BME280;48440;51.224;22.506;2022-12-24T07:37:30;98291.34;;;3.31;89.70
62402;BME280;48440;51.224;22.506;2022-12-24T07:39:55;98291.34;;;3.31;89.07
62402;BME280;48440;51.224;22.506;2022-12-24T07:42:20;98288.69;;;3.31;89.19
62402;BME280;48440;51.224;22.506;2022-12-24T07:44:46;98294.63;;;3.33;89.13
62402;BME280;48440;51.224;22.506;2022-12-24T07:47:12;98295.22;;;3.35;89.68
62402;BME280;48440;51.224;22.506;2022-12-24T07:49:37;98298.94;;;3.34;89.17
62402;BME280;48440;51.224;22.506;2022-12-24T07:52:03;98295.44;;;3.34;89.24
62402;BME280;48440;51.224;22.506;2022-12-24T07:54:28;98303.25;;;3.35;89.07
62402;BME280;48440;51.224;22.506;2022-12-24T07:56:54;98294.41;;;3.35;89.25
62402;BME280;48440;51.224;22.506;2022-12-24T07:59:20;98300.34;;;3.37;89.10
62402;BME280;48440;51.224;22.506;2022-12-24T08:01:46;98296.59;;;3.38;89.25
62402;BME280;48440;51.224;22.506;2022-12-24T08:04:11;98300.91;;;3.39;89.11
62402;BME280;48440;51.224;22.506;2022-12-24T08:06:37;98303.59;;;3.39;89.36
62402;BME280;48440;51.224;22.506;2022-12-24T08:09:03;98302.31;;;3.41;89.19
62402;BME280;48440;51.224;22.506;2022-12-24T08:11:28;98300.44;;;3.42;89.00
62402;BME280;48440;51.224;22.506;2022-12-24T08:13:54;98304.75;;;3.43;88.99
62402;BME280;48440;51.224;22.506;2022-12-24T08:16:19;98313.03;;;3.41;89.10
62402;BME280;48440;51.224;22.506;2022-12-24T08:18:45;98305.00;;;3.41;89.31
62402;BME280;48440;51.224;22.506;2022-12-24T08:21:11;98302.31;;;3.41;89.05
62402;BME280;48440;51.224;22.506;2022-12-24T08:23:36;98300.22;;;3.44;89.48
62402;BME280;48440;51.224;22.506;2022-12-24T08:26:02;98303.72;;;3.44;89.16
62402;BME280;48440;51.224;22.506;2022-12-24T08:28:28;98317.72;;;3.46;89.20
62402;BME280;48440;51.224;22.506;2022-12-24T08:30:53;98311.53;;;3.46;88.86
62402;BME280;48440;51.224;22.506;2022-12-24T08:33:19;98315.63;;;3.48;88.82
62402;BME280;48440;51.224;22.506;2022-12-24T08:35:49;98323.66;;;3.48;89.18
62402;BME280;48440;51.224;22.506;2022-12-24T08:38:15;98319.13;;;3.49;89.00
62402;BME280;48440;51.224;22.506;2022-12-24T08:40:41;98327.28;;;3.54;89.38
62402;BME280;48440;51.224;22.506;2022-12-24T08:43:06;98325.53;;;3.59;89.09
62402;BME280;48440;51.224;22.506;2022-12-24T08:45:32;98319.94;;;3.61;89.04
62402;BME280;48440;51.224;22.506;2022-12-24T08:48:00;98313.53;;;3.62;88.63
62402;BME280;48440;51.224;22.506;2022-12-24T08:50:25;98310.63;;;3.63;88.47
62402;BME280;48440;51.224;22.506;2022-12-24T08:52:52;98312.81;;;3.66;88.84
62402;BME280;48440;51.224;22.506;2022-12-24T08:55:18;98304.53;;;3.68;88.66
62402;BME280;48440;51.224;22.506;2022-12-24T08:57:43;98315.59;;;3.71;88.49
62402;BME280;48440;51.224;22.506;2022-12-24T09:00:11;98317.25;;;3.72;88.94
62402;BME280;48440;51.224;22.506;2022-12-24T09:02:36;98320.28;;;3.76;88.71
62402;BME280;48440;51.224;22.506;2022-12-24T09:05:02;98323.53;;;3.78;88.54
62402;BME280;48440;51.224;22.506;2022-12-24T09:07:28;98319.81;;;3.79;88.95
62402;BME280;48440;51.224;22.506;2022-12-24T09:09:54;98324.94;;;3.81;88.97
62402;BME280;48440;51.224;22.506;2022-12-24T09:12:19;98319.81;;;3.79;89.08
62402;BME280;48440;51.224;22.506;2022-12-24T09:14:44;98324.13;;;3.80;89.05
62402;BME280;48440;51.224;22.506;2022-12-24T09:17:10;98322.72;;;3.78;89.00
62402;BME280;48440;51.224;22.506;2022-12-24T09:19:35;98319.00;;;3.79;89.15
62402;BME280;48440;51.224;22.506;2022-12-24T09:22:01;98320.84;;;3.78;89.65
62402;BME280;48440;51.224;22.506;2022-12-24T09:24:26;98320.84;;;3.78;89.42
62402;BME280;48440;51.224;22.506;2022-12-24T09:26:52;98320.41;;;3.81;89.44
62402;BME280;48440;51.224;22.506;2022-12-24T09:29:17;98319.47;;;3.87;89.39
62402;BME280;48440;51.224;22.506;2022-12-24T09:31:43;98323.63;;;3.95;89.47
62402;BME280;48440;51.224;22.506;2022-12-24T09:34:08;98330.16;;;3.99;89.33
62402;BME280;48440;51.224;22.506;2022-12-24T09:36:34;98336.47;;;4.04;89.35
62402;BME280;48440;51.224;22.506;2022-12-24T09:39:00;98336.00;;;4.07;89.23
62402;BME280;48440;51.224;22.506;2022-12-24T09:41:32;98329.59;;;4.08;88.61
62402;BME280;48440;51.224;22.506;2022-12-24T09:47:21;98325.13;;;4.14;88.58
62402;BME280;48440;51.224;22.506;2022-12-24T09:49:51;98330.97;;;4.11;88.37
62402;BME280;48440;51.224;22.506;2022-12-24T09:52:29;98329.59;;;4.08;88.18
62402;BME280;48440;51.224;22.506;2022-12-24T09:55:18;98330.97;;;4.11;88.27
62402;BME280;48440;51.224;22.506;2022-12-24T09:57:46;98334.94;;;4.08;88.67
62402;BME280;48440;51.224;22.506;2022-12-24T10:00:35;98338.44;;;4.09;88.71
62402;BME280;48440;51.224;22.506;2022-12-24T10:03:12;98334.25;;;4.13;88.90
62402;BME280;48440;51.224;22.506;2022-12-24T10:05:50;98341.25;;;4.14;89.14
62402;BME280;48440;51.224;22.506;2022-12-24T10:11:16;98346.13;;;4.17;88.44
62402;BME280;48440;51.224;22.506;2022-12-24T10:14:46;98353.13;;;4.18;88.27
62402;BME280;48440;51.224;22.506;2022-12-24T10:24:28;98352.19;;;4.24;88.51
62402;BME280;48440;51.224;22.506;2022-12-24T10:27:03;98358.16;;;4.26;88.23
62402;BME280;48440;51.224;22.506;2022-12-24T10:29:38;98356.84;;;4.29;88.02
62402;BME280;48440;51.224;22.506;2022-12-24T10:34:44;98358.13;;;4.38;88.11
62402;BME280;48440;51.224;22.506;2022-12-24T10:37:22;98360.06;;;4.42;87.72
62402;BME280;48440;51.224;22.506;2022-12-24T10:39:48;98356.91;;;4.46;87.40
62402;BME280;48440;51.224;22.506;2022-12-24T10:42:15;98352.94;;;4.48;87.42
62402;BME280;48440;51.224;22.506;2022-12-24T10:44:44;98358.44;;;4.53;87.47
62402;BME280;48440;51.224;22.506;2022-12-24T10:47:12;98359.47;;;4.52;87.54
62402;BME280;48440;51.224;22.506;2022-12-24T10:49:48;98362.97;;;4.53;87.26
62402;BME280;48440;51.224;22.506;2022-12-24T10:52:20;98358.44;;;4.53;87.68
62402;BME280;48440;51.224;22.506;2022-12-24T10:55:09;98361.13;;;4.53;87.29
62402;BME280;48440;51.224;22.506;2022-12-24T10:57:39;98359.81;;;4.56;87.58
62402;BME280;48440;51.224;22.506;2022-12-24T11:00:06;98366.25;;;4.55;87.37
62402;BME280;48440;51.224;22.506;2022-12-24T11:02:39;98377.22;;;4.53;87.75
62402;BME280;48440;51.224;22.506;2022-12-24T11:05:09;98381.91;;;4.46;87.68
62402;BME280;48440;51.224;22.506;2022-12-24T11:08:05;98383.94;;;4.39;87.96
62402;BME280;48440;51.224;22.506;2022-12-24T11:10:34;98382.78;;;4.35;88.42
62402;BME280;48440;51.224;22.506;2022-12-24T11:13:01;98385.94;;;4.32;88.11
62402;BME280;48440;51.224;22.506;2022-12-24T11:15:32;98388.28;;;4.28;88.69
62402;BME280;48440;51.224;22.506;2022-12-24T11:18:12;98387.91;;;4.25;88.87
62402;BME280;48440;51.224;22.506;2022-12-24T11:20:39;98384.66;;;4.23;89.06
62402;BME280;48440;51.224;22.506;2022-12-24T11:23:04;98384.66;;;4.23;89.38
62402;BME280;48440;51.224;22.506;2022-12-24T11:25:37;98383.03;;;4.22;89.04
62402;BME280;48440;51.224;22.506;2022-12-24T11:28:24;98381.38;;;4.21;89.20
62402;BME280;48440;51.224;22.506;2022-12-24T11:31:19;98386.06;;;4.25;89.55
62402;BME280;48440;51.224;22.506;2022-12-24T11:33:47;98390.38;;;4.26;89.13
62402;BME280;48440;51.224;22.506;2022-12-24T11:36:13;98392.81;;;4.28;89.27
62402;BME280;48440;51.224;22.506;2022-12-24T11:38:41;98393.41;;;4.30;89.05
62402;BME280;48440;51.224;22.506;2022-12-24T11:41:10;98399.59;;;4.30;88.81
62402;BME280;48440;51.224;22.506;2022-12-24T11:43:40;98395.84;;;4.31;88.99
62402;BME280;48440;51.224;22.506;2022-12-24T11:46:35;98395.84;;;4.31;89.44
62402;BME280;48440;51.224;22.506;2022-12-24T11:49:30;98402.63;;;4.34;88.85
62402;BME280;48440;51.224;22.506;2022-12-24T11:52:15;98405.66;;;4.37;89.00
62402;BME280;48440;51.224;22.506;2022-12-24T11:57:57;98385.06;;;4.43;89.16
62402;BME280;48440;51.224;22.506;2022-12-24T12:00:25;98381.09;;;4.46;89.06
62402;BME280;48440;51.224;22.506;2022-12-24T12:02:53;98390.56;;;4.48;88.63
62402;BME280;48440;51.224;22.506;2022-12-24T12:05:24;98385.28;;;4.53;88.80
62402;BME280;48440;51.224;22.506;2022-12-24T12:07:54;98398.72;;;4.53;88.55
62402;BME280;48440;51.224;22.506;2022-12-24T12:10:29;98396.50;;;4.50;88.66
62402;BME280;48440;51.224;22.506;2022-12-24T12:13:07;98408.06;;;4.51;88.71
62402;BME280;48440;51.224;22.506;2022-12-24T12:15:40;98413.22;;;4.52;88.97
62402;BME280;48440;51.224;22.506;2022-12-24T12:18:12;98415.78;;;4.47;88.48
62402;BME280;48440;51.224;22.506;2022-12-24T12:20:48;98418.47;;;4.47;88.92
62402;BME280;48440;51.224;22.506;2022-12-24T12:23:49;98422.44;;;4.44;88.88
62402;BME280;48440;51.224;22.506;2022-12-24T12:26:25;98429.09;;;4.42;88.95
62402;BME280;48440;51.224;22.506;2022-12-24T12:31:48;98438.94;;;4.36;89.15
62402;BME280;48440;51.224;22.506;2022-12-24T12:34:17;98436.50;;;4.35;89.15
62402;BME280;48440;51.224;22.506;2022-12-24T12:36:48;98452.25;;;4.31;88.93
62402;BME280;48440;51.224;22.506;2022-12-24T12:39:16;98443.97;;;4.33;89.40
62402;BME280;48440;51.224;22.506;2022-12-24T12:41:55;98451.22;;;4.32;88.87
62402;BME280;48440;51.224;22.506;2022-12-24T12:44:48;98457.63;;;4.31;88.96
62402;BME280;48440;51.224;22.506;2022-12-24T12:50:45;98463.25;;;4.30;88.80
62402;BME280;48440;51.224;22.506;2022-12-24T12:53:27;98467.34;;;4.32;88.83
62402;BME280;48440;51.224;22.506;2022-12-24T12:58:25;98481.22;;;4.29;88.56
62402;BME280;48440;51.224;22.506;2022-12-24T13:22:28;98516.94;;;4.18;88.20
62402;BME280;48440;51.224;22.506;2022-12-24T13:24:55;98518.00;;;4.17;88.79
62402;BME280;48440;51.224;22.506;2022-12-24T13:27:27;98519.84;;;4.17;88.98
62402;BME280;48440;51.224;22.506;2022-12-24T13:30:00;98520.94;;;4.16;88.71
62402;BME280;48440;51.224;22.506;2022-12-24T13:34:55;98531.78;;;4.21;88.69
62402;BME280;48440;51.224;22.506;2022-12-24T13:53:02;98542.97;;;4.06;88.66
62402;BME280;48440;51.224;22.506;2022-12-24T13:55:29;98548.56;;;4.04;88.69
62402;BME280;48440;51.224;22.506;2022-12-24T13:58:03;98551.50;;;4.03;88.54
62402;BME280;48440;51.224;22.506;2022-12-24T14:00:40;98552.31;;;4.03;88.74
62402;BME280;48440;51.224;22.506;2022-12-24T14:05:49;98562.22;;;4.03;88.83
62402;BME280;48440;51.224;22.506;2022-12-24T14:08:33;98568.41;;;4.03;88.96
62402;BME280;48440;51.224;22.506;2022-12-24T14:18:45;98597.38;;;4.01;89.01
62402;BME280;48440;51.224;22.506;2022-12-24T14:21:19;98603.91;;;4.05;88.60
62402;BME280;48440;51.224;22.506;2022-12-24T14:23:55;98611.75;;;4.07;88.71
62402;BME280;48440;51.224;22.506;2022-12-24T14:26:23;98605.56;;;4.06;88.55
62402;BME280;48440;51.224;22.506;2022-12-24T14:28:58;98618.84;;;4.01;88.61
62402;BME280;48440;51.224;22.506;2022-12-24T14:31:25;98620.03;;;4.05;88.63
62402;BME280;48440;51.224;22.506;2022-12-24T14:33:50;98622.94;;;4.04;88.51
62402;BME280;48440;51.224;22.506;2022-12-24T14:36:21;98625.03;;;4.02;88.35
62402;BME280;48440;51.224;22.506;2022-12-24T14:38:48;98633.31;;;4.00;88.53
62402;BME280;48440;51.224;22.506;2022-12-24T14:49:37;98652.56;;;3.97;88.27
62402;BME280;48440;51.224;22.506;2022-12-24T14:52:23;98664.34;;;3.96;88.06
62402;BME280;48440;51.224;22.506;2022-12-24T14:54:51;98675.91;;;3.97;88.51
62402;BME280;48440;51.224;22.506;2022-12-24T14:57:20;98678.22;;;3.93;88.24